sensor_id;sensor_type;location;lat;lon;timestamp;P1;durP1;ratioP1;P2;durP2;ratioP2
23376;SDS011;14353;46.070;13.222;2024-02-14T00:01:52;2.67;;;2.35;;
23376;SDS011;14353;46.070;13.222;2024-02-14T00:04:18;3.13;;;2.38;;
23376;SDS011;14353;46.070;13.222;2024-02-14T00:06:45;2.63;;;2.33;;
23376;SDS011;14353;46.070;13.222;2024-02-14T00:09:11;3.42;;;2.67;;
23376;SDS011;14353;46.070;13.222;2024-02-14T00:11:37;2.53;;;2.28;;
23376;SDS011;14353;46.070;13.222;2024-02-14T00:14:02;2.60;;;2.40;;
23376;SDS011;14353;46.070;13.222;2024-02-14T00:16:28;2.60;;;2.40;;
23376;SDS011;14353;46.070;13.222;2024-02-14T00:18:57;2.63;;;2.40;;
23376;SDS011;14353;46.070;13.222;2024-02-14T00:21:23;3.42;;;2.60;;
23376;SDS011;14353;46.070;13.222;2024-02-14T00:23:51;3.25;;;2.47;;
23376;SDS011;14353;46.070;13.222;2024-02-14T00:26:17;2.83;;;2.20;;
23376;SDS011;14353;46.070;13.222;2024-02-14T00:28:43;2.53;;;2.13;;
23376;SDS011;14353;46.070;13.222;2024-02-14T00:31:08;3.08;;;2.70;;
23376;SDS011;14353;46.070;13.222;2024-02-14T00:33:34;3.35;;;2.75;;
23376;SDS011;14353;46.070;13.222;2024-02-14T00:36:00;2.90;;;2.60;;
23376;SDS011;14353;46.070;13.222;2024-02-14T00:38:25;3.28;;;2.70;;
23376;SDS011;14353;46.070;13.222;2024-02-14T00:40:51;3.45;;;2.47;;
23376;SDS011;14353;46.070;13.222;2024-02-14T00:43:17;2.97;;;2.45;;
23376;SDS011;14353;46.070;13.222;2024-02-14T00:45:42;2.90;;;2.70;;
23376;SDS011;14353;46.070;13.222;2024-02-14T00:48:08;2.60;;;2.40;;
23376;SDS011;14353;46.070;13.222;2024-02-14T00:50:34;3.00;;;2.67;;
23376;SDS011;14353;46.070;13.222;2024-02-14T00:52:59;3.03;;;2.53;;
23376;SDS011;14353;46.070;13.222;2024-02-14T00:55:25;3.13;;;2.33;;
23376;SDS011;14353;46.070;13.222;2024-02-14T00:57:51;3.00;;;2.55;;
23376;SDS011;14353;46.070;13.222;2024-02-14T01:00:17;3.58;;;2.30;;
23376;SDS011;14353;46.070;13.222;2024-02-14T01:02:43;3.28;;;2.60;;
23376;SDS011;14353;46.070;13.222;2024-02-14T01:05:09;2.42;;;2.22;;
23376;SDS011;14353;46.070;13.222;2024-02-14T01:07:35;2.60;;;2.38;;
23376;SDS011;14353;46.070;13.222;2024-02-14T01:10:01;2.60;;;2.33;;
23376;SDS011;14353;46.070;13.222;2024-02-14T01:12:28;3.53;;;2.80;;
23376;SDS011;14353;46.070;13.222;2024-02-14T01:14:56;2.42;;;2.22;;
23376;SDS011;14353;46.070;13.222;2024-02-14T01:17:22;3.20;;;2.55;;
23376;SDS011;14353;46.070;13.222;2024-02-14T01:19:50;2.90;;;2.50;;
23376;SDS011;14353;46.070;13.222;2024-02-14T01:22:16;2.33;;;2.13;;
23376;SDS011;14353;46.070;13.222;2024-02-14T01:24:44;2.55;;;2.35;;
23376;SDS011;14353;46.070;13.222;2024-02-14T01:27:10;2.70;;;2.40;;
23376;SDS011;14353;46.070;13.222;2024-02-14T01:29:36;2.83;;;2.38;;
23376;SDS011;14353;46.070;13.222;2024-02-14T01:32:02;3.10;;;2.35;;
23376;SDS011;14353;46.070;13.222;2024-02-14T01:34:29;3.10;;;2.75;;
23376;SDS011;14353;46.070;13.222;2024-02-14T01:36:55;2.90;;;2.58;;
23376;SDS011;14353;46.070;13.222;2024-02-14T01:39:21;2.60;;;2.40;;
23376;SDS011;14353;46.070;13.222;2024-02-14T01:41:47;2.75;;;2.30;;
23376;SDS011;14353;46.070;13.222;2024-02-14T01:44:14;2.95;;;2.65;;
23376;SDS011;14353;46.070;13.222;2024-02-14T01:46:41;2.90;;;2.60;;
23376;SDS011;14353;46.070;13.222;2024-02-14T01:49:12;3.80;;;2.78;;
23376;SDS011;14353;46.070;13.222;2024-02-14T01:51:40;2.78;;;2.47;;
23376;SDS011;14353;46.070;13.222;2024-02-14T01:54:10;2.78;;;2.45;;
23376;SDS011;14353;46.070;13.222;2024-02-14T01:56:37;3.20;;;2.67;;
23376;SDS011;14353;46.070;13.222;2024-02-14T01:59:04;2.95;;;2.60;;
23376;SDS011;14353;46.070;13.222;2024-02-14T02:01:34;3.80;;;2.40;;
23376;SDS011;14353;46.070;13.222;2024-02-14T02:04:00;4.05;;;2.40;;
23376;SDS011;14353;46.070;13.222;2024-02-14T02:06:26;2.72;;;2.40;;
23376;SDS011;14353;46.070;13.222;2024-02-14T02:08:53;3.47;;;2.67;;
23376;SDS011;14353;46.070;13.222;2024-02-14T02:11:19;4.05;;;2.67;;
23376;SDS011;14353;46.070;13.222;2024-02-14T02:13:45;3.05;;;2.53;;
23376;SDS011;14353;46.070;13.222;2024-02-14T02:16:11;3.03;;;2.42;;
23376;SDS011;14353;46.070;13.222;2024-02-14T02:18:37;2.85;;;2.53;;
23376;SDS011;14353;46.070;13.222;2024-02-14T02:21:03;2.75;;;2.42;;
23376;SDS011;14353;46.070;13.222;2024-02-14T02:23:32;3.15;;;2.30;;
23376;SDS011;14353;46.070;13.222;2024-02-14T02:26:01;3.33;;;2.60;;
23376;SDS011;14353;46.070;13.222;2024-02-14T02:28:27;3.03;;;2.50;;
23376;SDS011;14353;46.070;13.222;2024-02-14T02:30:53;2.97;;;2.50;;
23376;SDS011;14353;46.070;13.222;2024-02-14T02:33:21;2.85;;;2.30;;
23376;SDS011;14353;46.070;13.222;2024-02-14T02:35:47;2.60;;;2.00;;
23376;SDS011;14353;46.070;13.222;2024-02-14T02:38:15;2.63;;;2.20;;
23376;SDS011;14353;46.070;13.222;2024-02-14T02:40:45;2.80;;;2.50;;
23376;SDS011;14353;46.070;13.222;2024-02-14T02:43:10;2.88;;;2.30;;
23376;SDS011;14353;46.070;13.222;2024-02-14T02:45:36;2.60;;;2.40;;
23376;SDS011;14353;46.070;13.222;2024-02-14T02:48:02;2.85;;;2.50;;
23376;SDS011;14353;46.070;13.222;2024-02-14T02:50:28;2.33;;;2.13;;
23376;SDS011;14353;46.070;13.222;2024-02-14T02:52:55;3.70;;;2.50;;
23376;SDS011;14353;46.070;13.222;2024-02-14T02:55:21;2.85;;;2.25;;
23376;SDS011;14353;46.070;13.222;2024-02-14T02:57:47;2.97;;;2.33;;
23376;SDS011;14353;46.070;13.222;2024-02-14T03:00:13;2.65;;;2.15;;
23376;SDS011;14353;46.070;13.222;2024-02-14T03:02:41;2.80;;;2.35;;
23376;SDS011;14353;46.070;13.222;2024-02-14T03:05:09;2.50;;;2.30;;
23376;SDS011;14353;46.070;13.222;2024-02-14T03:07:42;2.50;;;2.25;;
23376;SDS011;14353;46.070;13.222;2024-02-14T03:10:10;2.78;;;2.30;;
23376;SDS011;14353;46.070;13.222;2024-02-14T03:12:38;2.67;;;2.30;;
23376;SDS011;14353;46.070;13.222;2024-02-14T03:15:04;2.88;;;2.58;;
23376;SDS011;14353;46.070;13.222;2024-02-14T03:17:30;2.58;;;2.20;;
23376;SDS011;14353;46.070;13.222;2024-02-14T03:19:56;2.42;;;2.20;;
23376;SDS011;14353;46.070;13.222;2024-02-14T03:22:22;3.17;;;2.20;;
23376;SDS011;14353;46.070;13.222;2024-02-14T03:24:48;2.55;;;2.10;;
23376;SDS011;14353;46.070;13.222;2024-02-14T03:27:14;2.30;;;1.98;;
23376;SDS011;14353;46.070;13.222;2024-02-14T03:29:42;2.47;;;2.28;;
23376;SDS011;14353;46.070;13.222;2024-02-14T03:32:09;2.45;;;2.17;;
23376;SDS011;14353;46.070;13.222;2024-02-14T03:34:34;2.80;;;2.35;;
23376;SDS011;14353;46.070;13.222;2024-02-14T03:37:03;2.35;;;2.15;;
23376;SDS011;14353;46.070;13.222;2024-02-14T03:39:29;2.80;;;2.35;;
23376;SDS011;14353;46.070;13.222;2024-02-14T03:41:55;2.50;;;2.15;;
23376;SDS011;14353;46.070;13.222;2024-02-14T03:44:24;2.78;;;2.30;;
23376;SDS011;14353;46.070;13.222;2024-02-14T03:46:50;2.67;;;2.40;;
23376;SDS011;14353;46.070;13.222;2024-02-14T03:49:16;3.10;;;2.08;;
23376;SDS011;14353;46.070;13.222;2024-02-14T03:51:42;2.80;;;2.30;;
23376;SDS011;14353;46.070;13.222;2024-02-14T03:54:07;2.17;;;1.98;;
23376;SDS011;14353;46.070;13.222;2024-02-14T03:56:33;2.30;;;2.00;;
23376;SDS011;14353;46.070;13.222;2024-02-14T03:58:59;2.30;;;2.10;;
23376;SDS011;14353;46.070;13.222;2024-02-14T04:01:24;2.63;;;2.03;;
23376;SDS011;14353;46.070;13.222;2024-02-14T04:03:50;2.80;;;2.45;;
23376;SDS011;14353;46.070;13.222;2024-02-14T04:06:16;2.05;;;1.85;;
23376;SDS011;14353;46.070;13.222;2024-02-14T04:08:43;2.80;;;2.00;;
23376;SDS011;14353;46.070;13.222;2024-02-14T04:11:08;2.75;;;2.30;;
23376;SDS011;14353;46.070;13.222;2024-02-14T04:13:34;2.40;;;2.20;;
23376;SDS011;14353;46.070;13.222;2024-02-14T04:16:00;2.08;;;1.88;;
23376;SDS011;14353;46.070;13.222;2024-02-14T04:18:26;2.38;;;2.10;;
23376;SDS011;14353;46.070;13.222;2024-02-14T04:20:52;2.33;;;2.00;;
23376;SDS011;14353;46.070;13.222;2024-02-14T04:23:17;2.10;;;1.80;;
23376;SDS011;14353;46.070;13.222;2024-02-14T04:25:43;2.22;;;2.03;;
23376;SDS011;14353;46.070;13.222;2024-02-14T04:28:09;2.08;;;1.90;;
23376;SDS011;14353;46.070;13.222;2024-02-14T04:30:37;2.10;;;1.90;;
23376;SDS011;14353;46.070;13.222;2024-02-14T04:33:03;2.20;;;1.88;;
23376;SDS011;14353;46.070;13.222;2024-02-14T04:35:30;1.90;;;1.70;;
23376;SDS011;14353;46.070;13.222;2024-02-14T04:37:56;2.35;;;1.98;;
23376;SDS011;14353;46.070;13.222;2024-02-14T04:40:22;2.00;;;1.80;;
23376;SDS011;14353;46.070;13.222;2024-02-14T04:42:48;2.45;;;2.05;;
23376;SDS011;14353;46.070;13.222;2024-02-14T04:45:13;2.05;;;1.85;;
23376;SDS011;14353;46.070;13.222;2024-02-14T04:47:39;2.00;;;1.73;;
23376;SDS011;14353;46.070;13.222;2024-02-14T04:50:05;2.13;;;1.90;;
23376;SDS011;14353;46.070;13.222;2024-02-14T04:52:31;2.65;;;2.05;;
23376;SDS011;14353;46.070;13.222;2024-02-14T04:54:56;2.20;;;2.00;;
23376;SDS011;14353;46.070;13.222;2024-02-14T04:57:22;2.20;;;1.95;;
23376;SDS011;14353;46.070;13.222;2024-02-14T04:59:48;2.33;;;1.95;;
23376;SDS011;14353;46.070;13.222;2024-02-14T05:02:14;2.30;;;1.92;;
23376;SDS011;14353;46.070;13.222;2024-02-14T05:04:40;1.92;;;1.70;;
23376;SDS011;14353;46.070;13.222;2024-02-14T05:07:05;2.17;;;1.98;;
23376;SDS011;14353;46.070;13.222;2024-02-14T05:09:31;2.10;;;1.90;;
23376;SDS011;14353;46.070;13.222;2024-02-14T05:11:57;2.25;;;2.05;;
23376;SDS011;14353;46.070;13.222;2024-02-14T05:14:23;2.20;;;2.00;;
23376;SDS011;14353;46.070;13.222;2024-02-14T05:16:49;1.88;;;1.67;;
23376;SDS011;14353;46.070;13.222;2024-02-14T05:19:15;2.15;;;1.90;;
23376;SDS011;14353;46.070;13.222;2024-02-14T05:21:40;1.77;;;1.65;;
23376;SDS011;14353;46.070;13.222;2024-02-14T05:24:06;1.98;;;1.77;;
23376;SDS011;14353;46.070;13.222;2024-02-14T05:26:33;2.20;;;1.90;;
23376;SDS011;14353;46.070;13.222;2024-02-14T05:28:59;1.88;;;1.67;;
23376;SDS011;14353;46.070;13.222;2024-02-14T05:31:25;2.30;;;1.95;;
23376;SDS011;14353;46.070;13.222;2024-02-14T05:34:07;1.92;;;1.55;;
23376;SDS011;14353;46.070;13.222;2024-02-14T05:36:33;2.00;;;1.80;;
23376;SDS011;14353;46.070;13.222;2024-02-14T05:38:59;1.92;;;1.70;;
23376;SDS011;14353;46.070;13.222;2024-02-14T05:41:24;1.92;;;1.70;;
23376;SDS011;14353;46.070;13.222;2024-02-14T05:43:50;2.08;;;1.80;;
23376;SDS011;14353;46.070;13.222;2024-02-14T05:46:16;2.08;;;1.70;;
23376;SDS011;14353;46.070;13.222;2024-02-14T05:48:42;1.95;;;1.65;;
23376;SDS011;14353;46.070;13.222;2024-02-14T05:51:07;1.95;;;1.75;;
23376;SDS011;14353;46.070;13.222;2024-02-14T05:53:33;1.77;;;1.67;;
23376;SDS011;14353;46.070;13.222;2024-02-14T05:55:58;2.15;;;1.88;;
23376;SDS011;14353;46.070;13.222;2024-02-14T05:58:24;2.20;;;1.70;;
23376;SDS011;14353;46.070;13.222;2024-02-14T06:00:53;2.00;;;1.80;;
23376;SDS011;14353;46.070;13.222;2024-02-14T06:03:20;1.55;;;1.45;;
23376;SDS011;14353;46.070;13.222;2024-02-14T06:05:46;1.60;;;1.50;;
23376;SDS011;14353;46.070;13.222;2024-02-14T06:08:12;1.70;;;1.60;;
23376;SDS011;14353;46.070;13.222;2024-02-14T06:10:37;1.95;;;1.60;;
23376;SDS011;14353;46.070;13.222;2024-02-14T06:13:04;1.60;;;1.50;;
23376;SDS011;14353;46.070;13.222;2024-02-14T06:15:30;2.05;;;1.85;;
23376;SDS011;14353;46.070;13.222;2024-02-14T06:17:56;2.03;;;1.60;;
23376;SDS011;14353;46.070;13.222;2024-02-14T06:20:22;2.10;;;1.70;;
23376;SDS011;14353;46.070;13.222;2024-02-14T06:22:48;1.67;;;1.55;;
23376;SDS011;14353;46.070;13.222;2024-02-14T06:25:14;2.00;;;1.80;;
23376;SDS011;14353;46.070;13.222;2024-02-14T06:27:41;1.73;;;1.58;;
23376;SDS011;14353;46.070;13.222;2024-02-14T06:30:07;1.73;;;1.63;;
23376;SDS011;14353;46.070;13.222;2024-02-14T06:32:33;1.73;;;1.63;;
23376;SDS011;14353;46.070;13.222;2024-02-14T06:34:59;1.85;;;1.50;;
23376;SDS011;14353;46.070;13.222;2024-02-14T06:37:25;1.73;;;1.60;;
23376;SDS011;14353;46.070;13.222;2024-02-14T06:39:50;2.05;;;1.63;;
23376;SDS011;14353;46.070;13.222;2024-02-14T06:42:17;1.67;;;1.58;;
23376;SDS011;14353;46.070;13.222;2024-02-14T06:44:43;1.90;;;1.70;;
23376;SDS011;14353;46.070;13.222;2024-02-14T06:47:09;1.60;;;1.50;;
23376;SDS011;14353;46.070;13.222;2024-02-14T06:49:35;1.70;;;1.60;;
23376;SDS011;14353;46.070;13.222;2024-02-14T06:52:00;1.75;;;1.50;;
23376;SDS011;14353;46.070;13.222;2024-02-14T06:54:26;1.73;;;1.60;;
23376;SDS011;14353;46.070;13.222;2024-02-14T06:56:52;1.60;;;1.50;;
23376;SDS011;14353;46.070;13.222;2024-02-14T06:59:17;1.67;;;1.50;;
23376;SDS011;14353;46.070;13.222;2024-02-14T07:01:43;1.75;;;1.60;;
23376;SDS011;14353;46.070;13.222;2024-02-14T07:04:09;1.33;;;1.20;;
23376;SDS011;14353;46.070;13.222;2024-02-14T07:06:34;1.58;;;1.40;;
23376;SDS011;14353;46.070;13.222;2024-02-14T07:09:00;1.42;;;1.30;;
23376;SDS011;14353;46.070;13.222;2024-02-14T07:11:26;1.50;;;1.40;;
23376;SDS011;14353;46.070;13.222;2024-02-14T07:13:52;1.50;;;1.40;;
23376;SDS011;14353;46.070;13.222;2024-02-14T07:16:17;1.40;;;1.30;;
23376;SDS011;14353;46.070;13.222;2024-02-14T07:18:43;1.45;;;1.33;;
23376;SDS011;14353;46.070;13.222;2024-02-14T07:21:09;1.40;;;1.30;;
23376;SDS011;14353;46.070;13.222;2024-02-14T07:23:34;1.98;;;1.50;;
23376;SDS011;14353;46.070;13.222;2024-02-14T07:26:00;3.20;;;1.42;;
23376;SDS011;14353;46.070;13.222;2024-02-14T07:28:29;1.40;;;1.25;;
23376;SDS011;14353;46.070;13.222;2024-02-14T07:30:55;1.52;;;1.40;;
23376;SDS011;14353;46.070;13.222;2024-02-14T07:33:20;1.48;;;1.25;;
23376;SDS011;14353;46.070;13.222;2024-02-14T07:35:46;1.80;;;1.60;;
23376;SDS011;14353;46.070;13.222;2024-02-14T07:38:12;1.70;;;1.20;;
23376;SDS011;14353;46.070;13.222;2024-02-14T07:40:41;1.80;;;1.45;;
23376;SDS011;14353;46.070;13.222;2024-02-14T07:43:07;1.50;;;1.40;;
23376;SDS011;14353;46.070;13.222;2024-02-14T07:45:33;1.40;;;1.30;;
23376;SDS011;14353;46.070;13.222;2024-02-14T07:47:58;1.80;;;1.40;;
23376;SDS011;14353;46.070;13.222;2024-02-14T07:50:24;1.33;;;1.20;;
23376;SDS011;14353;46.070;13.222;2024-02-14T07:52:50;2.20;;;1.60;;
23376;SDS011;14353;46.070;13.222;2024-02-14T07:55:15;1.40;;;1.27;;
23376;SDS011;14353;46.070;13.222;2024-02-14T08:17:30;1.40;;;1.30;;
23376;SDS011;14353;46.070;13.222;2024-02-14T08:19:56;1.55;;;1.38;;
23376;SDS011;14353;46.070;13.222;2024-02-14T08:22:21;1.38;;;1.27;;
23376;SDS011;14353;46.070;13.222;2024-02-14T08:24:47;1.48;;;1.33;;
23376;SDS011;14353;46.070;13.222;2024-02-14T08:27:13;1.60;;;1.50;;
23376;SDS011;14353;46.070;13.222;2024-02-14T08:29:39;1.70;;;1.20;;
23376;SDS011;14353;46.070;13.222;2024-02-14T08:32:04;1.42;;;1.33;;
23376;SDS011;14353;46.070;13.222;2024-02-14T08:34:30;2.03;;;1.30;;
23376;SDS011;14353;46.070;13.222;2024-02-14T08:36:56;1.30;;;1.20;;
23376;SDS011;14353;46.070;13.222;2024-02-14T08:39:22;2.63;;;1.33;;
23376;SDS011;14353;46.070;13.222;2024-02-14T08:41:47;1.55;;;1.45;;
23376;SDS011;14353;46.070;13.222;2024-02-14T08:44:14;1.45;;;1.30;;
23376;SDS011;14353;46.070;13.222;2024-02-14T08:46:40;1.42;;;1.20;;
23376;SDS011;14353;46.070;13.222;2024-02-14T08:49:07;1.75;;;1.50;;
23376;SDS011;14353;46.070;13.222;2024-02-14T08:51:37;1.30;;;1.20;;
23376;SDS011;14353;46.070;13.222;2024-02-14T08:54:03;1.77;;;1.30;;
23376;SDS011;14353;46.070;13.222;2024-02-14T08:56:31;1.58;;;1.40;;
23376;SDS011;14353;46.070;13.222;2024-02-14T08:59:00;1.40;;;1.30;;
23376;SDS011;14353;46.070;13.222;2024-02-14T09:01:27;1.58;;;1.30;;
23376;SDS011;14353;46.070;13.222;2024-02-14T09:03:53;1.52;;;1.20;;
23376;SDS011;14353;46.070;13.222;2024-02-14T09:06:20;3.65;;;1.90;;
23376;SDS011;14353;46.070;13.222;2024-02-14T09:08:47;3.60;;;1.40;;
23376;SDS011;14353;46.070;13.222;2024-02-14T09:11:13;2.00;;;1.33;;
23376;SDS011;14353;46.070;13.222;2024-02-14T09:13:39;2.72;;;1.50;;
23376;SDS011;14353;46.070;13.222;2024-02-14T09:16:08;2.47;;;1.20;;
23376;SDS011;14353;46.070;13.222;2024-02-14T09:18:34;5.75;;;1.80;;
23376;SDS011;14353;46.070;13.222;2024-02-14T09:21:00;7.78;;;2.10;;
23376;SDS011;14353;46.070;13.222;2024-02-14T09:23:28;7.00;;;1.90;;
23376;SDS011;14353;46.070;13.222;2024-02-14T09:25:55;3.20;;;1.90;;
23376;SDS011;14353;46.070;13.222;2024-02-14T09:28:22;3.50;;;1.85;;
23376;SDS011;14353;46.070;13.222;2024-02-14T09:30:48;5.82;;;1.73;;
23376;SDS011;14353;46.070;13.222;2024-02-14T09:33:13;3.80;;;1.80;;
23376;SDS011;14353;46.070;13.222;2024-02-14T09:35:39;4.82;;;1.98;;
23376;SDS011;14353;46.070;13.222;2024-02-14T09:38:09;2.75;;;1.60;;
23376;SDS011;14353;46.070;13.222;2024-02-14T09:40:37;7.07;;;1.85;;
23376;SDS011;14353;46.070;13.222;2024-02-14T09:43:05;8.20;;;2.38;;
23376;SDS011;14353;46.070;13.222;2024-02-14T09:45:57;4.50;;;1.75;;
23376;SDS011;14353;46.070;13.222;2024-02-14T09:48:23;8.75;;;2.00;;
23376;SDS011;14353;46.070;13.222;2024-02-14T09:50:50;5.93;;;1.85;;
23376;SDS011;14353;46.070;13.222;2024-02-14T09:53:18;5.03;;;1.77;;
23376;SDS011;14353;46.070;13.222;2024-02-14T09:55:45;6.60;;;2.22;;
23376;SDS011;14353;46.070;13.222;2024-02-14T09:58:11;8.75;;;1.90;;
23376;SDS011;14353;46.070;13.222;2024-02-14T10:00:38;8.95;;;2.13;;
23376;SDS011;14353;46.070;13.222;2024-02-14T10:03:05;6.22;;;2.13;;
23376;SDS011;14353;46.070;13.222;2024-02-14T10:05:31;8.02;;;2.38;;
23376;SDS011;14353;46.070;13.222;2024-02-14T10:07:57;5.32;;;1.88;;
23376;SDS011;14353;46.070;13.222;2024-02-14T10:10:23;6.63;;;2.10;;
23376;SDS011;14353;46.070;13.222;2024-02-14T10:12:49;8.82;;;2.10;;
23376;SDS011;14353;46.070;13.222;2024-02-14T10:15:15;4.60;;;1.67;;
23376;SDS011;14353;46.070;13.222;2024-02-14T10:17:42;9.50;;;2.10;;
23376;SDS011;14353;46.070;13.222;2024-02-14T10:20:08;10.23;;;2.40;;
23376;SDS011;14353;46.070;13.222;2024-02-14T10:22:38;8.27;;;2.33;;
23376;SDS011;14353;46.070;13.222;2024-02-14T10:25:04;5.22;;;1.92;;
23376;SDS011;14353;46.070;13.222;2024-02-14T10:27:40;6.55;;;2.50;;
23376;SDS011;14353;46.070;13.222;2024-02-14T10:30:09;5.75;;;2.25;;
23376;SDS011;14353;46.070;13.222;2024-02-14T10:32:44;7.85;;;2.13;;
23376;SDS011;14353;46.070;13.222;2024-02-14T10:35:14;5.80;;;2.00;;
23376;SDS011;14353;46.070;13.222;2024-02-14T10:37:41;7.05;;;2.25;;
23376;SDS011;14353;46.070;13.222;2024-02-14T10:40:07;4.32;;;2.05;;
23376;SDS011;14353;46.070;13.222;2024-02-14T10:42:34;5.18;;;2.05;;
23376;SDS011;14353;46.070;13.222;2024-02-14T10:45:04;9.13;;;2.30;;
23376;SDS011;14353;46.070;13.222;2024-02-14T10:47:40;4.97;;;1.63;;
23376;SDS011;14353;46.070;13.222;2024-02-14T10:50:08;8.75;;;2.20;;
23376;SDS011;14353;46.070;13.222;2024-02-14T10:52:35;5.53;;;1.70;;
23376;SDS011;14353;46.070;13.222;2024-02-14T10:55:05;9.48;;;2.17;;
23376;SDS011;14353;46.070;13.222;2024-02-14T10:57:31;7.78;;;2.15;;
23376;SDS011;14353;46.070;13.222;2024-02-14T11:00:02;7.95;;;2.05;;
23376;SDS011;14353;46.070;13.222;2024-02-14T11:02:39;9.93;;;2.10;;
23376;SDS011;14353;46.070;13.222;2024-02-14T11:05:11;6.93;;;2.17;;
23376;SDS011;14353;46.070;13.222;2024-02-14T11:07:43;3.97;;;1.95;;
23376;SDS011;14353;46.070;13.222;2024-02-14T11:10:12;6.10;;;1.85;;
23376;SDS011;14353;46.070;13.222;2024-02-14T11:12:40;8.27;;;2.10;;
23376;SDS011;14353;46.070;13.222;2024-02-14T11:15:24;7.30;;;1.90;;
23376;SDS011;14353;46.070;13.222;2024-02-14T11:17:50;4.68;;;1.90;;
23376;SDS011;14353;46.070;13.222;2024-02-14T11:20:19;6.90;;;1.95;;
23376;SDS011;14353;46.070;13.222;2024-02-14T11:22:53;5.25;;;1.98;;
23376;SDS011;14353;46.070;13.222;2024-02-14T11:25:30;7.57;;;1.95;;
23376;SDS011;14353;46.070;13.222;2024-02-14T11:27:59;6.40;;;2.00;;
23376;SDS011;14353;46.070;13.222;2024-02-14T11:30:29;5.35;;;2.30;;
23376;SDS011;14353;46.070;13.222;2024-02-14T11:32:56;5.15;;;2.00;;
23376;SDS011;14353;46.070;13.222;2024-02-14T11:35:40;7.63;;;2.30;;
23376;SDS011;14353;46.070;13.222;2024-02-14T11:38:07;7.97;;;2.05;;
23376;SDS011;14353;46.070;13.222;2024-02-14T11:40:34;9.30;;;2.20;;
23376;SDS011;14353;46.070;13.222;2024-02-14T11:43:01;5.43;;;2.17;;
23376;SDS011;14353;46.070;13.222;2024-02-14T11:45:29;6.93;;;2.15;;
23376;SDS011;14353;46.070;13.222;2024-02-14T11:47:55;8.75;;;2.70;;
23376;SDS011;14353;46.070;13.222;2024-02-14T11:50:21;8.45;;;2.22;;
23376;SDS011;14353;46.070;13.222;2024-02-14T11:52:47;6.53;;;2.30;;
23376;SDS011;14353;46.070;13.222;2024-02-14T11:55:13;7.22;;;2.58;;
23376;SDS011;14353;46.070;13.222;2024-02-14T11:57:42;7.13;;;2.40;;
23376;SDS011;14353;46.070;13.222;2024-02-14T12:00:08;10.05;;;2.83;;
23376;SDS011;14353;46.070;13.222;2024-02-14T12:02:34;6.28;;;2.38;;
23376;SDS011;14353;46.070;13.222;2024-02-14T12:05:01;9.75;;;2.88;;
23376;SDS011;14353;46.070;13.222;2024-02-14T12:07:30;10.73;;;2.83;;
23376;SDS011;14353;46.070;13.222;2024-02-14T12:09:56;12.25;;;2.60;;
23376;SDS011;14353;46.070;13.222;2024-02-14T12:12:22;9.90;;;3.20;;
23376;SDS011;14353;46.070;13.222;2024-02-14T12:14:51;12.95;;;2.88;;
23376;SDS011;14353;46.070;13.222;2024-02-14T12:17:20;19.48;;;3.97;;
23376;SDS011;14353;46.070;13.222;2024-02-14T12:19:48;17.88;;;3.83;;
23376;SDS011;14353;46.070;13.222;2024-02-14T12:22:15;16.48;;;3.90;;
23376;SDS011;14353;46.070;13.222;2024-02-14T12:24:44;14.07;;;3.45;;
23376;SDS011;14353;46.070;13.222;2024-02-14T12:27:12;15.45;;;3.47;;
23376;SDS011;14353;46.070;13.222;2024-02-14T12:29:38;16.73;;;3.60;;
23376;SDS011;14353;46.070;13.222;2024-02-14T12:32:05;16.95;;;3.08;;
23376;SDS011;14353;46.070;13.222;2024-02-14T12:34:31;14.75;;;3.20;;
23376;SDS011;14353;46.070;13.222;2024-02-14T12:36:57;12.82;;;3.38;;
23376;SDS011;14353;46.070;13.222;2024-02-14T12:39:24;16.05;;;3.70;;
23376;SDS011;14353;46.070;13.222;2024-02-14T12:41:51;10.13;;;2.90;;
23376;SDS011;14353;46.070;13.222;2024-02-14T12:44:17;10.10;;;2.70;;
23376;SDS011;14353;46.070;13.222;2024-02-14T12:46:43;8.57;;;3.20;;
23376;SDS011;14353;46.070;13.222;2024-02-14T12:49:09;8.00;;;2.63;;
23376;SDS011;14353;46.070;13.222;2024-02-14T12:51:36;4.63;;;2.38;;
23376;SDS011;14353;46.070;13.222;2024-02-14T12:54:03;6.57;;;2.70;;
23376;SDS011;14353;46.070;13.222;2024-02-14T12:56:29;6.18;;;2.60;;
23376;SDS011;14353;46.070;13.222;2024-02-14T12:58:55;5.72;;;2.50;;
23376;SDS011;14353;46.070;13.222;2024-02-14T13:01:20;6.03;;;2.70;;
23376;SDS011;14353;46.070;13.222;2024-02-14T13:03:46;5.88;;;2.78;;
23376;SDS011;14353;46.070;13.222;2024-02-14T13:06:12;4.78;;;2.55;;
23376;SDS011;14353;46.070;13.222;2024-02-14T13:08:39;6.07;;;2.50;;
23376;SDS011;14353;46.070;13.222;2024-02-14T13:11:05;6.82;;;2.72;;
23376;SDS011;14353;46.070;13.222;2024-02-14T13:13:33;6.55;;;2.40;;
23376;SDS011;14353;46.070;13.222;2024-02-14T13:16:00;4.68;;;2.38;;
23376;SDS011;14353;46.070;13.222;2024-02-14T13:18:25;7.13;;;2.80;;
23376;SDS011;14353;46.070;13.222;2024-02-14T13:20:51;4.45;;;2.30;;
23376;SDS011;14353;46.070;13.222;2024-02-14T13:23:24;4.53;;;2.42;;
23376;SDS011;14353;46.070;13.222;2024-02-14T13:25:50;7.90;;;2.53;;
23376;SDS011;14353;46.070;13.222;2024-02-14T13:28:16;6.35;;;2.95;;
23376;SDS011;14353;46.070;13.222;2024-02-14T13:30:42;8.00;;;2.92;;
23376;SDS011;14353;46.070;13.222;2024-02-14T13:33:08;5.55;;;2.60;;
23376;SDS011;14353;46.070;13.222;2024-02-14T13:35:37;5.60;;;2.80;;
23376;SDS011;14353;46.070;13.222;2024-02-14T13:38:04;5.85;;;2.50;;
23376;SDS011;14353;46.070;13.222;2024-02-14T13:40:30;6.90;;;2.67;;
23376;SDS011;14353;46.070;13.222;2024-02-14T13:42:56;9.38;;;3.05;;
23376;SDS011;14353;46.070;13.222;2024-02-14T13:45:23;6.93;;;3.13;;
23376;SDS011;14353;46.070;13.222;2024-02-14T13:47:49;5.40;;;2.75;;
23376;SDS011;14353;46.070;13.222;2024-02-14T13:50:15;5.88;;;3.28;;
23376;SDS011;14353;46.070;13.222;2024-02-14T13:52:41;5.43;;;2.50;;
23376;SDS011;14353;46.070;13.222;2024-02-14T13:55:06;3.65;;;2.50;;
23376;SDS011;14353;46.070;13.222;2024-02-14T13:57:36;6.95;;;2.65;;
23376;SDS011;14353;46.070;13.222;2024-02-14T14:00:07;5.53;;;2.90;;
23376;SDS011;14353;46.070;13.222;2024-02-14T14:02:36;5.65;;;2.95;;
23376;SDS011;14353;46.070;13.222;2024-02-14T14:05:11;5.20;;;2.67;;
23376;SDS011;14353;46.070;13.222;2024-02-14T14:07:38;7.38;;;2.90;;
23376;SDS011;14353;46.070;13.222;2024-02-14T14:10:08;5.60;;;2.42;;
23376;SDS011;14353;46.070;13.222;2024-02-14T14:12:34;4.82;;;2.63;;
23376;SDS011;14353;46.070;13.222;2024-02-14T14:15:00;8.15;;;2.55;;
23376;SDS011;14353;46.070;13.222;2024-02-14T14:17:26;6.75;;;2.65;;
23376;SDS011;14353;46.070;13.222;2024-02-14T14:19:53;4.20;;;2.50;;
23376;SDS011;14353;46.070;13.222;2024-02-14T14:22:19;23.25;;;3.95;;
23376;SDS011;14353;46.070;13.222;2024-02-14T14:24:46;30.52;;;4.88;;
23376;SDS011;14353;46.070;13.222;2024-02-14T14:27:12;18.73;;;3.90;;
23376;SDS011;14353;46.070;13.222;2024-02-14T14:29:42;16.40;;;3.88;;
23376;SDS011;14353;46.070;13.222;2024-02-14T14:32:09;13.32;;;3.58;;
23376;SDS011;14353;46.070;13.222;2024-02-14T14:34:35;16.55;;;3.47;;
23376;SDS011;14353;46.070;13.222;2024-02-14T14:37:04;12.40;;;3.30;;
23376;SDS011;14353;46.070;13.222;2024-02-14T14:39:31;6.65;;;3.05;;
23376;SDS011;14353;46.070;13.222;2024-02-14T14:41:57;8.93;;;3.05;;
23376;SDS011;14353;46.070;13.222;2024-02-14T14:44:26;10.55;;;2.85;;
23376;SDS011;14353;46.070;13.222;2024-02-14T14:46:55;11.90;;;3.40;;
23376;SDS011;14353;46.070;13.222;2024-02-14T14:49:21;12.75;;;3.20;;
23376;SDS011;14353;46.070;13.222;2024-02-14T14:51:47;8.20;;;3.00;;